Countyline, North Carolina
Current Conditions -  °F | °C
As of 10:55 PM on Sunday 23 Nov 2014 (Local Time) from KSVH Reporting Station
Overcast Overcast  
Wind Chill: 61°   Ceiling: 600
Heat Index: 61°   Visibility: 10mi
Dew Point: 60°   Wind: 9mph
Humidity: 98%   Direction: 200°SSW
Pressure: 29.71"   Gusts: NA
Location:  35.9632°N, 80.7532°W
Report Text: KSVH 240355Z AUTO 20008KT 170V230 10SM OVC006 16/16 A2971 RMK AO2 T01610158
Loading
Personal Weather Stations






























Interactive Weather Map New forecast layout! Learn more

10-Day Weather Forecast

Advertisements
Track Severe Weather on mobile